sensor_id;sensor_type;location;lat;lon;timestamp;P1;durP1;ratioP1;P2;durP2;ratioP2
32838;SDS011;19182;41.820;12.808;2023-02-01T00:01:59;13.48;;;6.78;;
32838;SDS011;19182;41.820;12.808;2023-02-01T00:04:26;13.02;;;7.43;;
32838;SDS011;19182;41.820;12.808;2023-02-01T00:06:52;17.83;;;7.43;;
32838;SDS011;19182;41.820;12.808;2023-02-01T00:09:18;13.77;;;7.50;;
32838;SDS011;19182;41.820;12.808;2023-02-01T00:11:44;12.85;;;6.70;;
32838;SDS011;19182;41.820;12.808;2023-02-01T00:14:10;15.43;;;7.07;;
32838;SDS011;19182;41.820;12.808;2023-02-01T00:16:36;10.93;;;6.93;;
32838;SDS011;19182;41.820;12.808;2023-02-01T00:19:07;14.32;;;6.75;;
32838;SDS011;19182;41.820;12.808;2023-02-01T00:21:36;11.73;;;6.97;;
32838;SDS011;19182;41.820;12.808;2023-02-01T00:24:02;14.80;;;7.45;;
32838;SDS011;19182;41.820;12.808;2023-02-01T00:26:33;14.35;;;6.78;;
32838;SDS011;19182;41.820;12.808;2023-02-01T00:29:01;12.57;;;7.10;;
32838;SDS011;19182;41.820;12.808;2023-02-01T00:31:29;14.70;;;8.07;;
32838;SDS011;19182;41.820;12.808;2023-02-01T00:33:55;13.13;;;6.78;;
32838;SDS011;19182;41.820;12.808;2023-02-01T00:36:21;10.25;;;6.05;;
32838;SDS011;19182;41.820;12.808;2023-02-01T00:38:47;10.70;;;6.50;;
32838;SDS011;19182;41.820;12.808;2023-02-01T00:41:13;16.73;;;6.68;;
32838;SDS011;19182;41.820;12.808;2023-02-01T00:43:44;12.70;;;7.32;;
32838;SDS011;19182;41.820;12.808;2023-02-01T00:46:11;14.85;;;6.90;;
32838;SDS011;19182;41.820;12.808;2023-02-01T00:48:38;10.90;;;6.30;;
32838;SDS011;19182;41.820;12.808;2023-02-01T00:51:14;19.92;;;8.20;;
32838;SDS011;19182;41.820;12.808;2023-02-01T00:53:41;11.80;;;6.78;;
32838;SDS011;19182;41.820;12.808;2023-02-01T00:56:08;18.85;;;7.32;;
32838;SDS011;19182;41.820;12.808;2023-02-01T00:58:34;12.90;;;6.85;;
32838;SDS011;19182;41.820;12.808;2023-02-01T01:03:36;13.57;;;6.50;;
32838;SDS011;19182;41.820;12.808;2023-02-01T01:06:08;14.70;;;6.85;;
32838;SDS011;19182;41.820;12.808;2023-02-01T01:08:36;16.35;;;7.53;;
32838;SDS011;19182;41.820;12.808;2023-02-01T01:11:06;12.73;;;6.70;;
32838;SDS011;19182;41.820;12.808;2023-02-01T01:13:37;14.18;;;7.20;;
32838;SDS011;19182;41.820;12.808;2023-02-01T01:16:04;14.52;;;6.80;;
32838;SDS011;19182;41.820;12.808;2023-02-01T01:18:31;14.90;;;7.22;;
32838;SDS011;19182;41.820;12.808;2023-02-01T01:20:58;14.02;;;7.82;;
32838;SDS011;19182;41.820;12.808;2023-02-01T01:23:25;12.50;;;7.03;;
32838;SDS011;19182;41.820;12.808;2023-02-01T01:25:52;17.63;;;8.73;;
32838;SDS011;19182;41.820;12.808;2023-02-01T01:28:18;16.00;;;7.65;;
32838;SDS011;19182;41.820;12.808;2023-02-01T01:30:44;12.48;;;6.45;;
32838;SDS011;19182;41.820;12.808;2023-02-01T01:33:10;20.02;;;8.70;;
32838;SDS011;19182;41.820;12.808;2023-02-01T01:35:35;18.13;;;8.00;;
32838;SDS011;19182;41.820;12.808;2023-02-01T01:38:01;16.02;;;9.10;;
32838;SDS011;19182;41.820;12.808;2023-02-01T01:40:27;15.88;;;8.13;;
32838;SDS011;19182;41.820;12.808;2023-02-01T01:42:54;12.57;;;7.47;;
32838;SDS011;19182;41.820;12.808;2023-02-01T01:47:48;16.00;;;7.97;;
32838;SDS011;19182;41.820;12.808;2023-02-01T01:50:16;14.90;;;6.95;;
32838;SDS011;19182;41.820;12.808;2023-02-01T01:55:12;17.58;;;7.97;;
32838;SDS011;19182;41.820;12.808;2023-02-01T01:57:39;16.95;;;7.22;;
32838;SDS011;19182;41.820;12.808;2023-02-01T02:02:40;19.70;;;8.68;;
32838;SDS011;19182;41.820;12.808;2023-02-01T02:05:08;14.82;;;8.52;;
32838;SDS011;19182;41.820;12.808;2023-02-01T02:07:39;17.88;;;9.50;;
32838;SDS011;19182;41.820;12.808;2023-02-01T02:10:09;26.30;;;12.27;;
32838;SDS011;19182;41.820;12.808;2023-02-01T02:12:41;26.30;;;11.57;;
32838;SDS011;19182;41.820;12.808;2023-02-01T02:15:10;18.05;;;9.70;;
32838;SDS011;19182;41.820;12.808;2023-02-01T02:31:36;15.68;;;7.95;;
32838;SDS011;19182;41.820;12.808;2023-02-01T02:45:13;11.25;;;6.97;;
32838;SDS011;19182;41.820;12.808;2023-02-01T02:48:35;12.30;;;7.10;;
32838;SDS011;19182;41.820;12.808;2023-02-01T02:51:09;11.82;;;6.32;;
32838;SDS011;19182;41.820;12.808;2023-02-01T02:54:10;12.32;;;7.30;;
32838;SDS011;19182;41.820;12.808;2023-02-01T02:56:58;15.43;;;6.45;;
32838;SDS011;19182;41.820;12.808;2023-02-01T02:59:45;14.25;;;6.63;;
32838;SDS011;19182;41.820;12.808;2023-02-01T03:02:31;14.30;;;6.35;;
32838;SDS011;19182;41.820;12.808;2023-02-01T03:05:17;9.80;;;5.95;;
32838;SDS011;19182;41.820;12.808;2023-02-01T03:07:57;15.15;;;8.20;;
32838;SDS011;19182;41.820;12.808;2023-02-01T03:15:48;13.13;;;5.80;;
32838;SDS011;19182;41.820;12.808;2023-02-01T03:18:26;8.75;;;5.25;;
32838;SDS011;19182;41.820;12.808;2023-02-01T03:20:57;12.73;;;6.00;;
32838;SDS011;19182;41.820;12.808;2023-02-01T03:23:27;8.63;;;5.22;;
32838;SDS011;19182;41.820;12.808;2023-02-01T03:25:56;10.57;;;6.03;;
32838;SDS011;19182;41.820;12.808;2023-02-01T03:28:24;9.88;;;5.60;;
32838;SDS011;19182;41.820;12.808;2023-02-01T03:30:52;13.85;;;6.50;;
32838;SDS011;19182;41.820;12.808;2023-02-01T03:33:20;9.20;;;5.47;;
32838;SDS011;19182;41.820;12.808;2023-02-01T03:38:58;9.20;;;5.63;;
32838;SDS011;19182;41.820;12.808;2023-02-01T03:41:46;10.75;;;5.20;;
32838;SDS011;19182;41.820;12.808;2023-02-01T03:47:07;11.45;;;6.07;;
32838;SDS011;19182;41.820;12.808;2023-02-01T03:52:05;18.42;;;8.52;;
32838;SDS011;19182;41.820;12.808;2023-02-01T03:54:36;8.98;;;5.85;;
32838;SDS011;19182;41.820;12.808;2023-02-01T03:57:05;14.00;;;5.78;;
32838;SDS011;19182;41.820;12.808;2023-02-01T03:59:37;10.73;;;5.53;;
32838;SDS011;19182;41.820;12.808;2023-02-01T04:02:07;12.13;;;5.82;;
32838;SDS011;19182;41.820;12.808;2023-02-01T04:04:33;13.70;;;6.18;;
32838;SDS011;19182;41.820;12.808;2023-02-01T04:07:00;11.73;;;6.00;;
32838;SDS011;19182;41.820;12.808;2023-02-01T04:09:26;13.57;;;5.93;;
32838;SDS011;19182;41.820;12.808;2023-02-01T04:11:52;12.48;;;5.65;;
32838;SDS011;19182;41.820;12.808;2023-02-01T04:14:18;10.75;;;5.20;;
32838;SDS011;19182;41.820;12.808;2023-02-01T04:16:44;8.43;;;4.55;;
32838;SDS011;19182;41.820;12.808;2023-02-01T04:19:10;10.23;;;5.10;;
32838;SDS011;19182;41.820;12.808;2023-02-01T04:21:35;11.40;;;5.43;;
32838;SDS011;19182;41.820;12.808;2023-02-01T04:24:02;9.55;;;5.70;;
32838;SDS011;19182;41.820;12.808;2023-02-01T04:26:28;8.27;;;5.18;;
32838;SDS011;19182;41.820;12.808;2023-02-01T04:28:54;12.30;;;5.63;;
32838;SDS011;19182;41.820;12.808;2023-02-01T04:31:20;10.23;;;5.53;;
32838;SDS011;19182;41.820;12.808;2023-02-01T04:33:50;9.30;;;4.95;;
32838;SDS011;19182;41.820;12.808;2023-02-01T04:36:17;7.47;;;4.80;;
32838;SDS011;19182;41.820;12.808;2023-02-01T04:38:45;13.23;;;5.40;;
32838;SDS011;19182;41.820;12.808;2023-02-01T04:41:12;13.25;;;5.63;;
32838;SDS011;19182;41.820;12.808;2023-02-01T04:43:38;11.00;;;5.55;;
32838;SDS011;19182;41.820;12.808;2023-02-01T04:46:04;10.35;;;6.22;;
32838;SDS011;19182;41.820;12.808;2023-02-01T04:48:29;13.13;;;5.60;;
32838;SDS011;19182;41.820;12.808;2023-02-01T04:50:56;10.98;;;6.22;;
32838;SDS011;19182;41.820;12.808;2023-02-01T04:53:21;12.52;;;7.10;;
32838;SDS011;19182;41.820;12.808;2023-02-01T04:55:48;11.75;;;5.45;;
32838;SDS011;19182;41.820;12.808;2023-02-01T04:58:14;9.75;;;6.13;;
32838;SDS011;19182;41.820;12.808;2023-02-01T05:00:40;8.98;;;6.00;;
32838;SDS011;19182;41.820;12.808;2023-02-01T05:06:28;11.55;;;6.53;;
32838;SDS011;19182;41.820;12.808;2023-02-01T05:08:54;11.25;;;6.03;;
32838;SDS011;19182;41.820;12.808;2023-02-01T05:11:20;12.60;;;6.93;;
32838;SDS011;19182;41.820;12.808;2023-02-01T05:14:04;13.93;;;6.80;;
32838;SDS011;19182;41.820;12.808;2023-02-01T05:16:30;10.32;;;6.15;;
32838;SDS011;19182;41.820;12.808;2023-02-01T05:18:59;14.07;;;6.63;;
32838;SDS011;19182;41.820;12.808;2023-02-01T05:21:24;11.27;;;6.03;;
32838;SDS011;19182;41.820;12.808;2023-02-01T05:23:50;11.50;;;5.90;;
32838;SDS011;19182;41.820;12.808;2023-02-01T05:26:34;11.07;;;5.90;;
32838;SDS011;19182;41.820;12.808;2023-02-01T05:29:01;17.15;;;7.88;;
32838;SDS011;19182;41.820;12.808;2023-02-01T05:31:27;11.73;;;5.70;;
32838;SDS011;19182;41.820;12.808;2023-02-01T05:33:53;14.45;;;5.35;;
32838;SDS011;19182;41.820;12.808;2023-02-01T05:36:19;14.43;;;6.75;;
32838;SDS011;19182;41.820;12.808;2023-02-01T05:38:45;13.68;;;6.13;;
32838;SDS011;19182;41.820;12.808;2023-02-01T05:41:11;11.43;;;6.00;;
32838;SDS011;19182;41.820;12.808;2023-02-01T05:43:37;10.32;;;6.25;;
32838;SDS011;19182;41.820;12.808;2023-02-01T05:46:03;12.88;;;6.18;;
32838;SDS011;19182;41.820;12.808;2023-02-01T05:48:29;10.30;;;5.40;;
32838;SDS011;19182;41.820;12.808;2023-02-01T05:50:55;14.15;;;6.05;;
32838;SDS011;19182;41.820;12.808;2023-02-01T05:53:21;8.98;;;5.85;;
32838;SDS011;19182;41.820;12.808;2023-02-01T05:55:47;10.30;;;4.22;;
32838;SDS011;19182;41.820;12.808;2023-02-01T05:58:12;8.75;;;5.60;;
32838;SDS011;19182;41.820;12.808;2023-02-01T06:00:39;10.52;;;5.22;;
32838;SDS011;19182;41.820;12.808;2023-02-01T06:03:05;11.85;;;5.35;;
32838;SDS011;19182;41.820;12.808;2023-02-01T06:05:32;10.23;;;4.80;;
32838;SDS011;19182;41.820;12.808;2023-02-01T06:07:58;8.65;;;5.60;;
32838;SDS011;19182;41.820;12.808;2023-02-01T06:10:24;8.75;;;6.13;;
32838;SDS011;19182;41.820;12.808;2023-02-01T06:12:50;11.43;;;5.32;;
32838;SDS011;19182;41.820;12.808;2023-02-01T06:15:16;11.30;;;5.70;;
32838;SDS011;19182;41.820;12.808;2023-02-01T06:17:43;10.00;;;5.90;;
32838;SDS011;19182;41.820;12.808;2023-02-01T06:20:10;11.82;;;5.50;;
32838;SDS011;19182;41.820;12.808;2023-02-01T06:22:37;11.05;;;5.10;;
32838;SDS011;19182;41.820;12.808;2023-02-01T06:25:06;12.23;;;5.53;;
32838;SDS011;19182;41.820;12.808;2023-02-01T06:27:34;9.70;;;5.18;;
32838;SDS011;19182;41.820;12.808;2023-02-01T06:30:01;8.85;;;4.90;;
32838;SDS011;19182;41.820;12.808;2023-02-01T06:32:28;15.43;;;5.90;;
32838;SDS011;19182;41.820;12.808;2023-02-01T06:34:55;10.52;;;5.15;;
32838;SDS011;19182;41.820;12.808;2023-02-01T06:37:22;10.43;;;5.10;;
32838;SDS011;19182;41.820;12.808;2023-02-01T06:39:49;8.60;;;4.93;;
32838;SDS011;19182;41.820;12.808;2023-02-01T06:42:14;12.10;;;5.68;;
32838;SDS011;19182;41.820;12.808;2023-02-01T06:44:40;13.13;;;5.47;;
32838;SDS011;19182;41.820;12.808;2023-02-01T06:47:06;9.43;;;5.38;;
32838;SDS011;19182;41.820;12.808;2023-02-01T06:49:36;12.55;;;5.28;;
32838;SDS011;19182;41.820;12.808;2023-02-01T06:52:02;9.65;;;5.47;;
32838;SDS011;19182;41.820;12.808;2023-02-01T06:54:28;12.45;;;6.32;;
32838;SDS011;19182;41.820;12.808;2023-02-01T06:56:54;11.63;;;6.20;;
32838;SDS011;19182;41.820;12.808;2023-02-01T06:59:20;11.55;;;5.80;;
32838;SDS011;19182;41.820;12.808;2023-02-01T07:01:46;13.55;;;6.57;;
32838;SDS011;19182;41.820;12.808;2023-02-01T07:04:12;11.77;;;6.40;;
32838;SDS011;19182;41.820;12.808;2023-02-01T07:06:38;15.60;;;7.80;;
32838;SDS011;19182;41.820;12.808;2023-02-01T07:09:04;12.20;;;6.85;;
32838;SDS011;19182;41.820;12.808;2023-02-01T07:11:31;15.35;;;7.60;;
32838;SDS011;19182;41.820;12.808;2023-02-01T07:13:57;14.20;;;6.38;;
32838;SDS011;19182;41.820;12.808;2023-02-01T07:16:23;23.55;;;7.90;;
32838;SDS011;19182;41.820;12.808;2023-02-01T07:18:49;14.88;;;8.38;;
32838;SDS011;19182;41.820;12.808;2023-02-01T07:21:16;12.52;;;6.50;;
32838;SDS011;19182;41.820;12.808;2023-02-01T07:23:42;15.05;;;7.28;;
32838;SDS011;19182;41.820;12.808;2023-02-01T07:26:09;12.05;;;7.03;;
32838;SDS011;19182;41.820;12.808;2023-02-01T07:28:41;18.77;;;8.50;;
32838;SDS011;19182;41.820;12.808;2023-02-01T07:31:08;15.57;;;8.25;;
32838;SDS011;19182;41.820;12.808;2023-02-01T07:33:35;17.02;;;8.23;;
32838;SDS011;19182;41.820;12.808;2023-02-01T07:36:02;11.02;;;8.18;;
32838;SDS011;19182;41.820;12.808;2023-02-01T07:38:30;13.80;;;6.47;;
32838;SDS011;19182;41.820;12.808;2023-02-01T07:40:59;15.80;;;7.13;;
32838;SDS011;19182;41.820;12.808;2023-02-01T07:43:26;11.57;;;6.43;;
32838;SDS011;19182;41.820;12.808;2023-02-01T07:45:53;10.15;;;6.22;;
32838;SDS011;19182;41.820;12.808;2023-02-01T07:48:19;10.15;;;5.90;;
32838;SDS011;19182;41.820;12.808;2023-02-01T07:50:46;10.70;;;5.93;;
32838;SDS011;19182;41.820;12.808;2023-02-01T07:53:13;9.38;;;5.88;;
32838;SDS011;19182;41.820;12.808;2023-02-01T07:55:39;10.13;;;6.82;;
32838;SDS011;19182;41.820;12.808;2023-02-01T07:58:05;12.35;;;7.28;;
32838;SDS011;19182;41.820;12.808;2023-02-01T08:00:31;13.45;;;6.47;;
32838;SDS011;19182;41.820;12.808;2023-02-01T08:03:16;15.35;;;8.25;;
32838;SDS011;19182;41.820;12.808;2023-02-01T08:05:42;17.00;;;9.70;;
32838;SDS011;19182;41.820;12.808;2023-02-01T08:08:08;11.18;;;7.40;;
32838;SDS011;19182;41.820;12.808;2023-02-01T08:10:33;12.27;;;7.20;;
32838;SDS011;19182;41.820;12.808;2023-02-01T08:13:00;15.35;;;8.23;;
32838;SDS011;19182;41.820;12.808;2023-02-01T08:15:27;11.85;;;6.68;;
32838;SDS011;19182;41.820;12.808;2023-02-01T08:17:53;10.45;;;6.65;;
32838;SDS011;19182;41.820;12.808;2023-02-01T08:20:22;11.63;;;6.67;;
32838;SDS011;19182;41.820;12.808;2023-02-01T08:22:49;13.55;;;7.57;;
32838;SDS011;19182;41.820;12.808;2023-02-01T08:25:15;14.98;;;8.35;;
32838;SDS011;19182;41.820;12.808;2023-02-01T08:27:41;12.98;;;8.07;;
32838;SDS011;19182;41.820;12.808;2023-02-01T08:30:07;11.63;;;7.80;;
32838;SDS011;19182;41.820;12.808;2023-02-01T08:32:34;15.23;;;8.65;;
32838;SDS011;19182;41.820;12.808;2023-02-01T08:35:00;15.48;;;9.65;;
32838;SDS011;19182;41.820;12.808;2023-02-01T08:37:27;11.43;;;7.50;;
32838;SDS011;19182;41.820;12.808;2023-02-01T08:39:53;12.25;;;7.82;;
32838;SDS011;19182;41.820;12.808;2023-02-01T08:42:19;15.45;;;8.77;;
32838;SDS011;19182;41.820;12.808;2023-02-01T08:45:03;10.13;;;7.40;;
32838;SDS011;19182;41.820;12.808;2023-02-01T08:47:29;14.90;;;8.30;;
32838;SDS011;19182;41.820;12.808;2023-02-01T08:49:55;9.60;;;6.35;;
32838;SDS011;19182;41.820;12.808;2023-02-01T08:52:21;8.30;;;5.75;;
32838;SDS011;19182;41.820;12.808;2023-02-01T08:54:47;10.05;;;6.20;;
32838;SDS011;19182;41.820;12.808;2023-02-01T08:57:14;10.27;;;5.07;;
32838;SDS011;19182;41.820;12.808;2023-02-01T08:59:40;9.93;;;5.07;;
32838;SDS011;19182;41.820;12.808;2023-02-01T09:02:11;9.90;;;5.93;;
32838;SDS011;19182;41.820;12.808;2023-02-01T09:07:05;8.27;;;4.57;;
32838;SDS011;19182;41.820;12.808;2023-02-01T09:09:31;7.43;;;4.53;;
32838;SDS011;19182;41.820;12.808;2023-02-01T09:11:56;10.10;;;5.15;;
32838;SDS011;19182;41.820;12.808;2023-02-01T09:14:22;9.98;;;5.25;;
32838;SDS011;19182;41.820;12.808;2023-02-01T09:16:48;8.27;;;5.05;;
32838;SDS011;19182;41.820;12.808;2023-02-01T09:19:14;9.23;;;5.03;;
32838;SDS011;19182;41.820;12.808;2023-02-01T09:21:41;8.05;;;4.45;;
32838;SDS011;19182;41.820;12.808;2023-02-01T09:24:06;12.43;;;4.78;;
32838;SDS011;19182;41.820;12.808;2023-02-01T09:26:35;6.57;;;4.10;;
32838;SDS011;19182;41.820;12.808;2023-02-01T09:29:01;7.70;;;3.53;;
32838;SDS011;19182;41.820;12.808;2023-02-01T09:31:28;5.40;;;3.50;;
32838;SDS011;19182;41.820;12.808;2023-02-01T09:33:55;6.25;;;3.97;;
32838;SDS011;19182;41.820;12.808;2023-02-01T09:36:21;5.68;;;3.10;;
32838;SDS011;19182;41.820;12.808;2023-02-01T09:38:48;7.97;;;3.92;;
32838;SDS011;19182;41.820;12.808;2023-02-01T09:46:53;7.00;;;3.53;;
32838;SDS011;19182;41.820;12.808;2023-02-01T09:49:26;8.20;;;4.18;;
32838;SDS011;19182;41.820;12.808;2023-02-01T09:51:55;6.60;;;3.72;;
32838;SDS011;19182;41.820;12.808;2023-02-01T09:54:28;7.57;;;3.80;;
32838;SDS011;19182;41.820;12.808;2023-02-01T09:57:05;5.85;;;3.25;;
32838;SDS011;19182;41.820;12.808;2023-02-01T10:02:20;6.80;;;3.53;;
32838;SDS011;19182;41.820;12.808;2023-02-01T10:04:49;7.35;;;4.07;;
32838;SDS011;19182;41.820;12.808;2023-02-01T10:12:49;10.07;;;4.75;;
32838;SDS011;19182;41.820;12.808;2023-02-01T10:18:40;20.45;;;7.70;;
32838;SDS011;19182;41.820;12.808;2023-02-01T10:21:32;9.48;;;4.22;;
32838;SDS011;19182;41.820;12.808;2023-02-01T10:29:47;8.70;;;4.05;;
32838;SDS011;19182;41.820;12.808;2023-02-01T10:32:32;8.93;;;4.05;;
32838;SDS011;19182;41.820;12.808;2023-02-01T10:35:12;7.97;;;4.68;;
32838;SDS011;19182;41.820;12.808;2023-02-01T10:37:44;8.35;;;3.75;;
32838;SDS011;19182;41.820;12.808;2023-02-01T10:42:43;7.97;;;3.72;;
32838;SDS011;19182;41.820;12.808;2023-02-01T10:45:11;5.75;;;3.58;;
32838;SDS011;19182;41.820;12.808;2023-02-01T10:47:41;8.75;;;3.75;;
32838;SDS011;19182;41.820;12.808;2023-02-01T10:57:55;7.03;;;3.88;;
32838;SDS011;19182;41.820;12.808;2023-02-01T11:00:25;7.22;;;3.72;;
32838;SDS011;19182;41.820;12.808;2023-02-01T11:02:52;8.23;;;4.78;;
32838;SDS011;19182;41.820;12.808;2023-02-01T11:05:18;10.30;;;4.00;;
32838;SDS011;19182;41.820;12.808;2023-02-01T11:07:51;9.93;;;4.68;;
32838;SDS011;19182;41.820;12.808;2023-02-01T11:10:40;6.95;;;3.85;;
32838;SDS011;19182;41.820;12.808;2023-02-01T11:13:13;9.40;;;4.35;;
32838;SDS011;19182;41.820;12.808;2023-02-01T11:15:44;6.18;;;3.83;;
32838;SDS011;19182;41.820;12.808;2023-02-01T11:18:18;8.02;;;4.43;;
32838;SDS011;19182;41.820;12.808;2023-02-01T11:20:46;7.60;;;4.38;;
32838;SDS011;19182;41.820;12.808;2023-02-01T11:23:15;12.43;;;4.80;;
32838;SDS011;19182;41.820;12.808;2023-02-01T11:25:55;14.90;;;7.25;;
32838;SDS011;19182;41.820;12.808;2023-02-01T11:28:31;17.60;;;7.85;;
32838;SDS011;19182;41.820;12.808;2023-02-01T11:31:04;16.95;;;7.45;;
32838;SDS011;19182;41.820;12.808;2023-02-01T11:33:37;16.88;;;8.85;;
32838;SDS011;19182;41.820;12.808;2023-02-01T11:36:08;18.75;;;9.30;;
32838;SDS011;19182;41.820;12.808;2023-02-01T11:38:40;13.75;;;8.55;;
32838;SDS011;19182;41.820;12.808;2023-02-01T11:46:28;18.70;;;9.40;;
32838;SDS011;19182;41.820;12.808;2023-02-01T11:48:56;15.23;;;8.80;;
32838;SDS011;19182;41.820;12.808;2023-02-01T11:51:48;13.88;;;9.43;;
32838;SDS011;19182;41.820;12.808;2023-02-01T11:54:40;22.38;;;10.90;;
32838;SDS011;19182;41.820;12.808;2023-02-01T12:00:02;32.70;;;16.55;;
32838;SDS011;19182;41.820;12.808;2023-02-01T12:02:57;24.17;;;13.52;;
32838;SDS011;19182;41.820;12.808;2023-02-01T12:12:28;44.95;;;22.65;;
32838;SDS011;19182;41.820;12.808;2023-02-01T12:15:22;18.48;;;9.70;;
32838;SDS011;19182;41.820;12.808;2023-02-01T12:37:09;14.52;;;7.18;;
32838;SDS011;19182;41.820;12.808;2023-02-01T12:40:15;15.23;;;8.05;;
32838;SDS011;19182;41.820;12.808;2023-02-01T12:43:09;48.78;;;27.95;;
32838;SDS011;19182;41.820;12.808;2023-02-01T12:46:05;14.95;;;8.50;;
32838;SDS011;19182;41.820;12.808;2023-02-01T12:48:55;15.25;;;7.82;;
32838;SDS011;19182;41.820;12.808;2023-02-01T12:51:29;13.15;;;8.20;;
32838;SDS011;19182;41.820;12.808;2023-02-01T12:56:43;13.00;;;7.60;;
32838;SDS011;19182;41.820;12.808;2023-02-01T12:59:25;13.43;;;7.82;;
32838;SDS011;19182;41.820;12.808;2023-02-01T13:01:57;13.38;;;7.97;;
32838;SDS011;19182;41.820;12.808;2023-02-01T13:07:14;16.92;;;8.30;;
32838;SDS011;19182;41.820;12.808;2023-02-01T13:09:45;19.80;;;8.48;;
32838;SDS011;19182;41.820;12.808;2023-02-01T13:13:11;17.35;;;7.43;;
32838;SDS011;19182;41.820;12.808;2023-02-01T13:15:42;14.23;;;7.55;;
32838;SDS011;19182;41.820;12.808;2023-02-01T13:18:19;13.65;;;7.30;;
32838;SDS011;19182;41.820;12.808;2023-02-01T13:25:50;13.45;;;7.18;;
32838;SDS011;19182;41.820;12.808;2023-02-01T13:28:32;15.82;;;7.15;;
32838;SDS011;19182;41.820;12.808;2023-02-01T13:42:27;19.35;;;8.48;;
32838;SDS011;19182;41.820;12.808;2023-02-01T13:45:05;15.18;;;8.18;;
32838;SDS011;19182;41.820;12.808;2023-02-01T13:47:46;19.88;;;8.20;;
32838;SDS011;19182;41.820;12.808;2023-02-01T13:55:39;15.07;;;7.97;;
32838;SDS011;19182;41.820;12.808;2023-02-01T14:01:40;19.83;;;10.02;;
32838;SDS011;19182;41.820;12.808;2023-02-01T14:04:45;23.83;;;10.45;;
32838;SDS011;19182;41.820;12.808;2023-02-01T14:06:53;15.25;;;9.18;;
32838;SDS011;19182;41.820;12.808;2023-02-01T14:09:30;18.17;;;10.73;;
32838;SDS011;19182;41.820;12.808;2023-02-01T14:11:58;17.85;;;9.40;;
32838;SDS011;19182;41.820;12.808;2023-02-01T14:17:49;18.23;;;9.10;;
32838;SDS011;19182;41.820;12.808;2023-02-01T14:23:15;22.95;;;10.40;;
32838;SDS011;19182;41.820;12.808;2023-02-01T14:25:43;18.52;;;10.05;;
32838;SDS011;19182;41.820;12.808;2023-02-01T14:28:10;35.63;;;15.80;;
32838;SDS011;19182;41.820;12.808;2023-02-01T14:30:47;29.52;;;14.35;;
32838;SDS011;19182;41.820;12.808;2023-02-01T14:33:20;19.13;;;11.27;;
32838;SDS011;19182;41.820;12.808;2023-02-01T14:36:07;21.48;;;11.88;;
32838;SDS011;19182;41.820;12.808;2023-02-01T14:38:38;26.13;;;12.35;;
32838;SDS011;19182;41.820;12.808;2023-02-01T14:41:33;18.35;;;10.13;;
32838;SDS011;19182;41.820;12.808;2023-02-01T14:49:34;27.67;;;14.15;;
32838;SDS011;19182;41.820;12.808;2023-02-01T14:52:05;22.30;;;12.05;;
32838;SDS011;19182;41.820;12.808;2023-02-01T14:54:37;19.08;;;10.82;;
32838;SDS011;19182;41.820;12.808;2023-02-01T14:57:05;21.40;;;11.30;;
32838;SDS011;19182;41.820;12.808;2023-02-01T14:59:35;38.45;;;17.88;;
32838;SDS011;19182;41.820;12.808;2023-02-01T15:02:01;21.27;;;10.48;;
32838;SDS011;19182;41.820;12.808;2023-02-01T15:04:42;35.67;;;17.20;;
32838;SDS011;19182;41.820;12.808;2023-02-01T15:07:10;22.90;;;12.15;;
32838;SDS011;19182;41.820;12.808;2023-02-01T15:09:45;127.60;;;50.92;;
32838;SDS011;19182;41.820;12.808;2023-02-01T15:12:15;44.80;;;21.70;;
32838;SDS011;19182;41.820;12.808;2023-02-01T15:14:46;156.02;;;65.57;;
32838;SDS011;19182;41.820;12.808;2023-02-01T15:17:34;38.08;;;15.63;;
32838;SDS011;19182;41.820;12.808;2023-02-01T15:20:04;27.45;;;13.80;;
32838;SDS011;19182;41.820;12.808;2023-02-01T15:22:42;27.80;;;12.13;;
32838;SDS011;19182;41.820;12.808;2023-02-01T15:25:24;36.70;;;18.92;;
32838;SDS011;19182;41.820;12.808;2023-02-01T15:27:55;26.50;;;12.48;;
32838;SDS011;19182;41.820;12.808;2023-02-01T15:30:25;21.45;;;12.18;;
32838;SDS011;19182;41.820;12.808;2023-02-01T15:33:03;21.42;;;11.27;;
32838;SDS011;19182;41.820;12.808;2023-02-01T15:35:41;22.02;;;11.63;;
32838;SDS011;19182;41.820;12.808;2023-02-01T15:40:53;48.10;;;23.42;;
32838;SDS011;19182;41.820;12.808;2023-02-01T15:43:24;58.38;;;26.35;;
32838;SDS011;19182;41.820;12.808;2023-02-01T15:45:50;51.78;;;23.52;;
32838;SDS011;19182;41.820;12.808;2023-02-01T15:48:21;23.15;;;12.43;;
32838;SDS011;19182;41.820;12.808;2023-02-01T15:50:50;21.15;;;11.45;;
32838;SDS011;19182;41.820;12.808;2023-02-01T15:53:19;23.58;;;12.20;;
32838;SDS011;19182;41.820;12.808;2023-02-01T15:55:47;23.23;;;11.40;;
32838;SDS011;19182;41.820;12.808;2023-02-01T15:58:17;21.88;;;11.18;;
32838;SDS011;19182;41.820;12.808;2023-02-01T16:03:24;26.00;;;13.13;;
32838;SDS011;19182;41.820;12.808;2023-02-01T16:06:03;22.88;;;12.25;;
32838;SDS011;19182;41.820;12.808;2023-02-01T16:08:31;20.23;;;12.13;;
32838;SDS011;19182;41.820;12.808;2023-02-01T16:11:01;24.67;;;13.35;;
32838;SDS011;19182;41.820;12.808;2023-02-01T16:13:36;25.27;;;13.45;;
32838;SDS011;19182;41.820;12.808;2023-02-01T16:16:02;26.10;;;15.77;;
32838;SDS011;19182;41.820;12.808;2023-02-01T16:18:32;23.35;;;14.57;;
32838;SDS011;19182;41.820;12.808;2023-02-01T16:20:58;31.48;;;20.63;;
32838;SDS011;19182;41.820;12.808;2023-02-01T16:23:23;31.60;;;18.20;;
32838;SDS011;19182;41.820;12.808;2023-02-01T16:25:51;32.22;;;17.98;;
32838;SDS011;19182;41.820;12.808;2023-02-01T16:28:16;40.35;;;21.88;;
32838;SDS011;19182;41.820;12.808;2023-02-01T16:30:42;42.05;;;21.17;;
32838;SDS011;19182;41.820;12.808;2023-02-01T16:33:09;40.92;;;20.13;;
32838;SDS011;19182;41.820;12.808;2023-02-01T16:35:40;46.08;;;20.67;;
32838;SDS011;19182;41.820;12.808;2023-02-01T16:38:11;37.70;;;21.23;;
32838;SDS011;19182;41.820;12.808;2023-02-01T16:40:38;40.90;;;17.00;;
32838;SDS011;19182;41.820;12.808;2023-02-01T16:43:08;33.53;;;16.88;;
32838;SDS011;19182;41.820;12.808;2023-02-01T16:45:44;32.20;;;16.50;;
32838;SDS011;19182;41.820;12.808;2023-02-01T16:50:51;32.90;;;14.93;;
32838;SDS011;19182;41.820;12.808;2023-02-01T16:53:19;30.33;;;15.77;;
32838;SDS011;19182;41.820;12.808;2023-02-01T16:55:47;28.05;;;15.52;;
32838;SDS011;19182;41.820;12.808;2023-02-01T16:58:14;27.80;;;15.10;;
32838;SDS011;19182;41.820;12.808;2023-02-01T17:00:41;28.77;;;15.05;;
32838;SDS011;19182;41.820;12.808;2023-02-01T17:03:09;33.97;;;17.58;;
32838;SDS011;19182;41.820;12.808;2023-02-01T17:05:36;41.00;;;18.77;;
32838;SDS011;19182;41.820;12.808;2023-02-01T17:08:02;33.20;;;16.65;;
32838;SDS011;19182;41.820;12.808;2023-02-01T17:12:57;36.33;;;17.40;;
32838;SDS011;19182;41.820;12.808;2023-02-01T17:15:23;47.80;;;17.88;;
32838;SDS011;19182;41.820;12.808;2023-02-01T17:17:52;32.88;;;17.20;;
32838;SDS011;19182;41.820;12.808;2023-02-01T17:20:23;33.88;;;16.90;;
32838;SDS011;19182;41.820;12.808;2023-02-01T17:22:51;33.00;;;17.33;;
32838;SDS011;19182;41.820;12.808;2023-02-01T17:25:18;32.90;;;17.38;;
32838;SDS011;19182;41.820;12.808;2023-02-01T17:27:46;32.40;;;16.52;;
32838;SDS011;19182;41.820;12.808;2023-02-01T17:30:13;32.25;;;17.00;;
32838;SDS011;19182;41.820;12.808;2023-02-01T17:32:39;31.85;;;15.10;;
32838;SDS011;19182;41.820;12.808;2023-02-01T17:35:05;29.58;;;16.33;;